Jpo Aquarius — CQHE — position and weather

sailwx.info

Track history (hours):
 
Tides and Currents Weather Stations Pressure Air Temp Water Temp Dewpoint Dewpoint Depression Visibility Wind Speed Wind Dir Waves Ship Positions

Jpo Aquarius

Last reported at 2018-Jun-17 17:12 UTC. Time now 2018-Jun-22 16:55 UTC.
Position N 25°29' W 079°26'.

Length 207 m; draft 9.9 m.

Type: Ship. MMSI: 255805580.

Date/timePositionNaut miles runAvg speedWind from/ knotsBaromVisibWave heightAir tempDewpointWater temp
2018-Jun-17 17:12N 25°29' W 079°26'417.1
2018-Jun-17 16:59N 25°32' W 079°27'815.6
2018-Jun-17 16:30N 25°39' W 079°30'713.6
2018-Jun-17 16:00N 25°44' W 079°35'612.8
2018-Jun-17 15:30N 25°49' W 079°40'612.6
2018-Jun-17 15:00N 25°54' W 079°45'612.5
2018-Jun-17 14:30N 25°57' W 079°50'612.1
2018-Jun-17 14:00N 26°01' W 079°55'612.5
2018-Jun-17 13:30N 26°05' W 080°01'510.3
2018-Jun-17 13:00N 26°06' W 080°06'1 2.3
2018-Jun-17 12:22N 26°04' W 080°07'0 0.1
2018-Jun-17 11:52N 26°04' W 080°07'0 0.0
2018-Jun-17 11:22N 26°04' W 080°07'0 0.0
2018-Jun-17 10:58N 26°04' W 080°07'0 0.0
2018-Jun-17 10:29N 26°04' W 080°07'0 0.0
2018-Jun-17 09:50N 26°04' W 080°07'0 0.0
2018-Jun-17 09:20N 26°04' W 080°07'0 0.0
2018-Jun-17 09:01N 26°04' W 080°07'0 0.0
2018-Jun-17 08:28N 26°04' W 080°07'0 0.0
2018-Jun-17 07:58N 26°04' W 080°07'0 0.0
2018-Jun-17 07:31N 26°04' W 080°07'0 0.0
2018-Jun-17 07:01N 26°04' W 080°07'0 0.0
2018-Jun-17 06:16N 26°04' W 080°07'0 0.0
2018-Jun-17 05:59N 26°04' W 080°07'0 0.0
2018-Jun-17 05:18N 26°04' W 080°07'0 0.0
2018-Jun-17 04:53N 26°04' W 080°07'0 0.1
2018-Jun-17 04:23N 26°04' W 080°07'0 0.0
2018-Jun-17 03:53N 26°04' W 080°07'0 0.0
2018-Jun-17 03:23N 26°04' W 080°07'0 0.0
2018-Jun-17 02:53N 26°04' W 080°07'0 0.0
2018-Jun-17 02:23N 26°04' W 080°07'0 0.0
2018-Jun-17 01:56N 26°04' W 080°07'0 0.0
2018-Jun-17 01:20N 26°04' W 080°07'0 0.0
2018-Jun-17 00:53N 26°04' W 080°07'0 0.0
2018-Jun-17 00:20N 26°04' W 080°07'0 0.0
2018-Jun-16 23:53N 26°04' W 080°07'0 0.0
2018-Jun-16 23:23N 26°04' W 080°07'0 0.0
2018-Jun-16 22:58N 26°04' W 080°07'0 0.0
2018-Jun-16 22:30N 26°04' W 080°07'2 3.3
2018-Jun-16 22:00N 26°06' W 080°06'5 8.9
2018-Jun-16 21:30N 26°07' W 080°01'1 1.9
2018-Jun-16 21:00N 26°07' W 080°00'2 3.4
2018-Jun-16 20:30N 26°05' W 079°60'2 3.1
2018-Jun-16 20:00N 26°03' W 080°00'1 2.2
2018-Jun-16 19:30N 26°02' W 079°60'3 5.2
2018-Jun-16 19:00N 26°05' W 079°59'4 7.7
2018-Jun-16 18:30N 26°09' W 079°59'0 0.5
2018-Jun-16 18:00N 26°08' W 079°59'1 2.4
2018-Jun-16 17:29N 26°07' W 079°60'0 0.5
2018-Jun-16 17:01N 26°07' W 079°60'1 1.8
2018-Jun-16 16:30N 26°06' W 079°60'1 1.6
2018-Jun-16 16:00N 26°06' W 079°60'3 5.6
2018-Jun-16 15:30N 26°07' W 079°57'4 9.0
2018-Jun-16 15:00N 26°09' W 079°52'5 9.7
2018-Jun-16 14:30N 26°10' W 079°47'5 9.8
2018-Jun-16 14:00N 26°11' W 079°42'5 9.5
2018-Jun-16 13:28N 26°13' W 079°37'4 9.2
2018-Jun-16 13:00N 26°15' W 079°32'5 9.5
2018-Jun-16 12:30N 26°16' W 079°27'4313.3
2018-Jun-16 09:16N 26°24' W 078°40'2 7.2
2018-Jun-16 08:58N 26°26' W 078°42'8 0.2
2018-Jun-14 09:29N 26°21' W 078°48'1 1.0
2018-Jun-14 09:00N 26°21' W 078°48'1 1.1
2018-Jun-14 08:24N 26°21' W 078°47'0 1.1
2018-Jun-14 08:00N 26°22' W 078°47'1 1.2
2018-Jun-14 06:56N 26°22' W 078°45'4 0.1
2018-Jun-13 05:02N 26°24' W 078°42'0 1.0
2018-Jun-13 04:57N 26°24' W 078°42'0 0.9
2018-Jun-13 04:25N 26°24' W 078°41'0 0.9
2018-Jun-13 03:58N 26°24' W 078°41'  
2018-Jun-07 22:30N 09°42' W 079°44'711.9
2018-Jun-07 21:54N 09°36' W 079°47'511.8
2018-Jun-07 21:30N 09°32' W 079°50'612.1
2018-Jun-07 21:00N 09°28' W 079°54'611.8
2018-Jun-07 20:30N 09°22' W 079°55'1 2.4
2018-Jun-07 20:00N 09°21' W 079°55'0 0.2
2018-Jun-07 19:29N 09°21' W 079°54'0 0.0
2018-Jun-07 18:58N 09°21' W 079°54'0 0.0
2018-Jun-07 18:28N 09°21' W 079°54'0 0.0
2018-Jun-07 17:58N 09°21' W 079°54'0 0.0
2018-Jun-07 17:28N 09°21' W 079°54'  
Track history (hours):
 
Tides and Currents Weather Stations Pressure Air Temp Water Temp Dewpoint Dewpoint Depression Visibility Wind Speed Wind Dir Waves Ship Positions

Jpo Aquarius

Last reported at 2018-Jun-17 17:12 UTC. Time now 2018-Jun-22 16:55 UTC.
Position N 25°29' W 079°26'.

Length 207 m; draft 9.9 m.

Type: Ship. MMSI: 255805580.

Date/timePositionNaut miles runAvg speedWind from/ knotsBaromVisibWave heightAir tempDewpointWater temp
2018-Jun-17 17:12N 25°29' W 079°26'417.1
2018-Jun-17 16:59N 25°32' W 079°27'815.6
2018-Jun-17 16:30N 25°39' W 079°30'713.6
2018-Jun-17 16:00N 25°44' W 079°35'612.8
2018-Jun-17 15:30N 25°49' W 079°40'612.6
2018-Jun-17 15:00N 25°54' W 079°45'612.5
2018-Jun-17 14:30N 25°57' W 079°50'612.1
2018-Jun-17 14:00N 26°01' W 079°55'612.5
2018-Jun-17 13:30N 26°05' W 080°01'510.3
2018-Jun-17 13:00N 26°06' W 080°06'1 2.3
2018-Jun-17 12:22N 26°04' W 080°07'0 0.1
2018-Jun-17 11:52N 26°04' W 080°07'0 0.0
2018-Jun-17 11:22N 26°04' W 080°07'0 0.0
2018-Jun-17 10:58N 26°04' W 080°07'0 0.0
2018-Jun-17 10:29N 26°04' W 080°07'0 0.0
2018-Jun-17 09:50N 26°04' W 080°07'0 0.0
2018-Jun-17 09:20N 26°04' W 080°07'0 0.0
2018-Jun-17 09:01N 26°04' W 080°07'0 0.0
2018-Jun-17 08:28N 26°04' W 080°07'0 0.0
2018-Jun-17 07:58N 26°04' W 080°07'0 0.0
2018-Jun-17 07:31N 26°04' W 080°07'0 0.0
2018-Jun-17 07:01N 26°04' W 080°07'0 0.0
2018-Jun-17 06:16N 26°04' W 080°07'0 0.0
2018-Jun-17 05:59N 26°04' W 080°07'0 0.0
2018-Jun-17 05:18N 26°04' W 080°07'0 0.0
2018-Jun-17 04:53N 26°04' W 080°07'0 0.1
2018-Jun-17 04:23N 26°04' W 080°07'0 0.0
2018-Jun-17 03:53N 26°04' W 080°07'0 0.0
2018-Jun-17 03:23N 26°04' W 080°07'0 0.0
2018-Jun-17 02:53N 26°04' W 080°07'0 0.0
2018-Jun-17 02:23N 26°04' W 080°07'0 0.0
2018-Jun-17 01:56N 26°04' W 080°07'0 0.0
2018-Jun-17 01:20N 26°04' W 080°07'0 0.0
2018-Jun-17 00:53N 26°04' W 080°07'0 0.0
2018-Jun-17 00:20N 26°04' W 080°07'0 0.0
2018-Jun-16 23:53N 26°04' W 080°07'0 0.0
2018-Jun-16 23:23N 26°04' W 080°07'0 0.0
2018-Jun-16 22:58N 26°04' W 080°07'0 0.0
2018-Jun-16 22:30N 26°04' W 080°07'2 3.3
2018-Jun-16 22:00N 26°06' W 080°06'5 8.9
2018-Jun-16 21:30N 26°07' W 080°01'1 1.9
2018-Jun-16 21:00N 26°07' W 080°00'2 3.4
2018-Jun-16 20:30N 26°05' W 079°60'2 3.1
2018-Jun-16 20:00N 26°03' W 080°00'1 2.2
2018-Jun-16 19:30N 26°02' W 079°60'3 5.2
2018-Jun-16 19:00N 26°05' W 079°59'4 7.7
2018-Jun-16 18:30N 26°09' W 079°59'0 0.5
2018-Jun-16 18:00N 26°08' W 079°59'1 2.4
2018-Jun-16 17:29N 26°07' W 079°60'0 0.5
2018-Jun-16 17:01N 26°07' W 079°60'1 1.8
2018-Jun-16 16:30N 26°06' W 079°60'1 1.6
2018-Jun-16 16:00N 26°06' W 079°60'3 5.6
2018-Jun-16 15:30N 26°07' W 079°57'4 9.0
2018-Jun-16 15:00N 26°09' W 079°52'5 9.7
2018-Jun-16 14:30N 26°10' W 079°47'5 9.8
2018-Jun-16 14:00N 26°11' W 079°42'5 9.5
2018-Jun-16 13:28N 26°13' W 079°37'4 9.2
2018-Jun-16 13:00N 26°15' W 079°32'5 9.5
2018-Jun-16 12:30N 26°16' W 079°27'4313.3
2018-Jun-16 09:16N 26°24' W 078°40'2 7.2
2018-Jun-16 08:58N 26°26' W 078°42'8 0.2
2018-Jun-14 09:29N 26°21' W 078°48'1 1.0
2018-Jun-14 09:00N 26°21' W 078°48'1 1.1
2018-Jun-14 08:24N 26°21' W 078°47'0 1.1
2018-Jun-14 08:00N 26°22' W 078°47'1 1.2
2018-Jun-14 06:56N 26°22' W 078°45'4 0.1
2018-Jun-13 05:02N 26°24' W 078°42'0 1.0
2018-Jun-13 04:57N 26°24' W 078°42'0 0.9
2018-Jun-13 04:25N 26°24' W 078°41'0 0.9
2018-Jun-13 03:58N 26°24' W 078°41'  
2018-Jun-07 22:30N 09°42' W 079°44'711.9
2018-Jun-07 21:54N 09°36' W 079°47'511.8
2018-Jun-07 21:30N 09°32' W 079°50'612.1
2018-Jun-07 21:00N 09°28' W 079°54'611.8
2018-Jun-07 20:30N 09°22' W 079°55'1 2.4
2018-Jun-07 20:00N 09°21' W 079°55'0 0.2
2018-Jun-07 19:29N 09°21' W 079°54'0 0.0
2018-Jun-07 18:58N 09°21' W 079°54'0 0.0
2018-Jun-07 18:28N 09°21' W 079°54'0 0.0
2018-Jun-07 17:58N 09°21' W 079°54'0 0.0
2018-Jun-07 17:28N 09°21' W 079°54'  

Dump ship's entire track history